sensor_id;sensor_type;location;lat;lon;timestamp;P1;durP1;ratioP1;P2;durP2;ratioP2
1839;SDS011;920;48.944;9.148;2024-02-14T00:00:19;9.27;;;5.67;;
1839;SDS011;920;48.944;9.148;2024-02-14T00:02:46;7.00;;;5.73;;
1839;SDS011;920;48.944;9.148;2024-02-14T00:05:15;8.23;;;5.63;;
1839;SDS011;920;48.944;9.148;2024-02-14T00:07:42;7.00;;;5.50;;
1839;SDS011;920;48.944;9.148;2024-02-14T00:10:11;8.80;;;6.07;;
1839;SDS011;920;48.944;9.148;2024-02-14T00:12:37;8.13;;;5.83;;
1839;SDS011;920;48.944;9.148;2024-02-14T00:15:04;7.90;;;5.73;;
1839;SDS011;920;48.944;9.148;2024-02-14T00:17:33;8.60;;;5.27;;
1839;SDS011;920;48.944;9.148;2024-02-14T00:20:00;7.63;;;5.40;;
1839;SDS011;920;48.944;9.148;2024-02-14T00:22:28;9.00;;;5.77;;
1839;SDS011;920;48.944;9.148;2024-02-14T00:24:54;8.90;;;6.03;;
1839;SDS011;920;48.944;9.148;2024-02-14T00:27:22;8.07;;;4.70;;
1839;SDS011;920;48.944;9.148;2024-02-14T00:29:49;8.07;;;5.43;;
1839;SDS011;920;48.944;9.148;2024-02-14T00:32:16;7.60;;;6.10;;
1839;SDS011;920;48.944;9.148;2024-02-14T00:34:43;9.97;;;6.63;;
1839;SDS011;920;48.944;9.148;2024-02-14T00:37:10;9.23;;;6.20;;
1839;SDS011;920;48.944;9.148;2024-02-14T00:39:37;9.47;;;6.60;;
1839;SDS011;920;48.944;9.148;2024-02-14T00:42:04;7.97;;;5.63;;
1839;SDS011;920;48.944;9.148;2024-02-14T00:44:33;8.63;;;6.10;;
1839;SDS011;920;48.944;9.148;2024-02-14T00:47:00;9.77;;;6.47;;
1839;SDS011;920;48.944;9.148;2024-02-14T00:49:27;7.90;;;6.60;;
1839;SDS011;920;48.944;9.148;2024-02-14T00:51:54;9.27;;;6.43;;
1839;SDS011;920;48.944;9.148;2024-02-14T00:54:21;7.40;;;5.30;;
1839;SDS011;920;48.944;9.148;2024-02-14T00:56:48;6.40;;;5.13;;
1839;SDS011;920;48.944;9.148;2024-02-14T00:59:14;7.77;;;6.00;;
1839;SDS011;920;48.944;9.148;2024-02-14T01:01:43;8.90;;;5.20;;
1839;SDS011;920;48.944;9.148;2024-02-14T01:04:10;8.77;;;5.83;;
1839;SDS011;920;48.944;9.148;2024-02-14T01:06:37;9.10;;;6.00;;
1839;SDS011;920;48.944;9.148;2024-02-14T01:09:04;6.70;;;5.00;;
1839;SDS011;920;48.944;9.148;2024-02-14T01:11:31;7.63;;;5.30;;
1839;SDS011;920;48.944;9.148;2024-02-14T01:13:58;8.03;;;5.40;;
1839;SDS011;920;48.944;9.148;2024-02-14T01:16:25;8.90;;;5.90;;
1839;SDS011;920;48.944;9.148;2024-02-14T01:18:53;8.07;;;5.60;;
1839;SDS011;920;48.944;9.148;2024-02-14T01:21:20;7.10;;;5.37;;
1839;SDS011;920;48.944;9.148;2024-02-14T01:23:46;6.50;;;4.97;;
1839;SDS011;920;48.944;9.148;2024-02-14T01:26:13;5.77;;;4.50;;
1839;SDS011;920;48.944;9.148;2024-02-14T01:28:40;5.67;;;4.90;;
1839;SDS011;920;48.944;9.148;2024-02-14T01:31:09;6.73;;;4.77;;
1839;SDS011;920;48.944;9.148;2024-02-14T01:33:37;7.70;;;5.13;;
1839;SDS011;920;48.944;9.148;2024-02-14T01:36:07;5.97;;;4.50;;
1839;SDS011;920;48.944;9.148;2024-02-14T01:38:33;5.93;;;4.23;;
1839;SDS011;920;48.944;9.148;2024-02-14T01:41:01;5.93;;;3.87;;
1839;SDS011;920;48.944;9.148;2024-02-14T01:43:29;5.87;;;3.90;;
1839;SDS011;920;48.944;9.148;2024-02-14T01:45:56;6.20;;;4.07;;
1839;SDS011;920;48.944;9.148;2024-02-14T01:48:29;5.57;;;4.20;;
1839;SDS011;920;48.944;9.148;2024-02-14T01:50:56;7.43;;;5.17;;
1839;SDS011;920;48.944;9.148;2024-02-14T01:53:25;6.10;;;4.20;;
1839;SDS011;920;48.944;9.148;2024-02-14T01:55:55;7.73;;;4.33;;
1839;SDS011;920;48.944;9.148;2024-02-14T01:58:22;6.60;;;4.97;;
1839;SDS011;920;48.944;9.148;2024-02-14T02:00:49;6.17;;;4.77;;
1839;SDS011;920;48.944;9.148;2024-02-14T02:03:20;7.43;;;5.20;;
1839;SDS011;920;48.944;9.148;2024-02-14T02:05:48;7.47;;;5.73;;
1839;SDS011;920;48.944;9.148;2024-02-14T02:08:14;7.60;;;5.50;;
1839;SDS011;920;48.944;9.148;2024-02-14T02:10:43;7.67;;;6.10;;
1839;SDS011;920;48.944;9.148;2024-02-14T02:13:09;7.10;;;6.10;;
1839;SDS011;920;48.944;9.148;2024-02-14T02:15:36;7.73;;;5.83;;
1839;SDS011;920;48.944;9.148;2024-02-14T02:18:03;7.20;;;5.70;;
1839;SDS011;920;48.944;9.148;2024-02-14T02:20:31;6.93;;;5.90;;
1839;SDS011;920;48.944;9.148;2024-02-14T02:22:59;8.23;;;6.30;;
1839;SDS011;920;48.944;9.148;2024-02-14T02:25:27;8.57;;;5.73;;
1839;SDS011;920;48.944;9.148;2024-02-14T02:27:54;9.40;;;6.47;;
1839;SDS011;920;48.944;9.148;2024-02-14T02:30:21;7.17;;;5.27;;
1839;SDS011;920;48.944;9.148;2024-02-14T02:32:49;12.73;;;8.37;;
1839;SDS011;920;48.944;9.148;2024-02-14T02:35:16;9.90;;;6.87;;
1839;SDS011;920;48.944;9.148;2024-02-14T02:37:45;10.50;;;7.10;;
1839;SDS011;920;48.944;9.148;2024-02-14T02:40:14;7.70;;;6.17;;
1839;SDS011;920;48.944;9.148;2024-02-14T02:42:42;7.00;;;5.50;;
1839;SDS011;920;48.944;9.148;2024-02-14T02:45:10;7.30;;;5.83;;
1839;SDS011;920;48.944;9.148;2024-02-14T02:47:37;7.73;;;5.37;;
1839;SDS011;920;48.944;9.148;2024-02-14T02:50:05;5.63;;;4.80;;
1839;SDS011;920;48.944;9.148;2024-02-14T02:52:33;9.67;;;5.80;;
1839;SDS011;920;48.944;9.148;2024-02-14T02:55:00;7.50;;;5.63;;
1839;SDS011;920;48.944;9.148;2024-02-14T02:57:28;9.10;;;5.80;;
1839;SDS011;920;48.944;9.148;2024-02-14T02:59:57;8.47;;;6.20;;
1839;SDS011;920;48.944;9.148;2024-02-14T03:02:24;8.37;;;5.90;;
1839;SDS011;920;48.944;9.148;2024-02-14T03:04:51;10.60;;;6.93;;
1839;SDS011;920;48.944;9.148;2024-02-14T03:07:18;8.13;;;5.90;;
1839;SDS011;920;48.944;9.148;2024-02-14T03:09:45;7.43;;;6.10;;
1839;SDS011;920;48.944;9.148;2024-02-14T03:12:12;6.93;;;5.90;;
1839;SDS011;920;48.944;9.148;2024-02-14T03:14:42;7.20;;;5.47;;
1839;SDS011;920;48.944;9.148;2024-02-14T03:17:09;7.93;;;5.80;;
1839;SDS011;920;48.944;9.148;2024-02-14T03:19:36;8.97;;;6.50;;
1839;SDS011;920;48.944;9.148;2024-02-14T03:22:04;9.43;;;6.13;;
1839;SDS011;920;48.944;9.148;2024-02-14T03:24:33;8.83;;;5.67;;
1839;SDS011;920;48.944;9.148;2024-02-14T03:27:02;6.87;;;5.10;;
1839;SDS011;920;48.944;9.148;2024-02-14T03:29:30;9.20;;;5.70;;
1839;SDS011;920;48.944;9.148;2024-02-14T03:32:00;10.90;;;7.80;;
1839;SDS011;920;48.944;9.148;2024-02-14T03:34:29;10.97;;;8.00;;
1839;SDS011;920;48.944;9.148;2024-02-14T03:36:59;11.13;;;8.00;;
1839;SDS011;920;48.944;9.148;2024-02-14T03:39:27;10.33;;;8.00;;
1839;SDS011;920;48.944;9.148;2024-02-14T03:41:54;10.03;;;7.30;;
1839;SDS011;920;48.944;9.148;2024-02-14T03:44:21;11.20;;;7.77;;
1839;SDS011;920;48.944;9.148;2024-02-14T03:46:48;9.33;;;6.63;;
1839;SDS011;920;48.944;9.148;2024-02-14T03:49:16;9.80;;;7.20;;
1839;SDS011;920;48.944;9.148;2024-02-14T03:51:43;8.03;;;6.37;;
1839;SDS011;920;48.944;9.148;2024-02-14T03:54:10;8.60;;;5.70;;
1839;SDS011;920;48.944;9.148;2024-02-14T03:56:37;10.60;;;5.60;;
1839;SDS011;920;48.944;9.148;2024-02-14T03:59:04;6.90;;;5.27;;
1839;SDS011;920;48.944;9.148;2024-02-14T04:01:33;8.30;;;4.80;;
1839;SDS011;920;48.944;9.148;2024-02-14T04:04:00;7.13;;;5.27;;
1839;SDS011;920;48.944;9.148;2024-02-14T04:06:28;7.00;;;5.20;;
1839;SDS011;920;48.944;9.148;2024-02-14T04:08:57;6.20;;;5.07;;
1839;SDS011;920;48.944;9.148;2024-02-14T04:11:24;7.27;;;5.17;;
1839;SDS011;920;48.944;9.148;2024-02-14T04:13:51;7.70;;;5.73;;
1839;SDS011;920;48.944;9.148;2024-02-14T04:16:18;6.37;;;4.80;;
1839;SDS011;920;48.944;9.148;2024-02-14T04:18:46;6.87;;;4.60;;
1839;SDS011;920;48.944;9.148;2024-02-14T04:21:13;5.70;;;4.43;;
1839;SDS011;920;48.944;9.148;2024-02-14T04:23:41;6.10;;;4.70;;
1839;SDS011;920;48.944;9.148;2024-02-14T04:26:08;7.83;;;4.43;;
1839;SDS011;920;48.944;9.148;2024-02-14T04:28:35;7.80;;;4.47;;
1839;SDS011;920;48.944;9.148;2024-02-14T04:31:02;7.70;;;4.70;;
1839;SDS011;920;48.944;9.148;2024-02-14T04:33:28;8.00;;;4.93;;
1839;SDS011;920;48.944;9.148;2024-02-14T04:35:56;5.33;;;4.13;;
1839;SDS011;920;48.944;9.148;2024-02-14T04:38:22;6.53;;;4.40;;
1839;SDS011;920;48.944;9.148;2024-02-14T04:40:50;6.33;;;4.20;;
1839;SDS011;920;48.944;9.148;2024-02-14T04:43:17;4.47;;;3.53;;
1839;SDS011;920;48.944;9.148;2024-02-14T04:45:44;6.17;;;3.80;;
1839;SDS011;920;48.944;9.148;2024-02-14T04:48:12;6.90;;;3.40;;
1839;SDS011;920;48.944;9.148;2024-02-14T04:50:38;5.77;;;3.20;;
1839;SDS011;920;48.944;9.148;2024-02-14T04:53:05;5.43;;;3.30;;
1839;SDS011;920;48.944;9.148;2024-02-14T04:55:33;4.73;;;3.60;;
1839;SDS011;920;48.944;9.148;2024-02-14T04:58:01;5.53;;;3.23;;
1839;SDS011;920;48.944;9.148;2024-02-14T05:00:28;4.27;;;3.00;;
1839;SDS011;920;48.944;9.148;2024-02-14T05:02:55;4.70;;;2.70;;
1839;SDS011;920;48.944;9.148;2024-02-14T05:05:22;5.90;;;2.33;;
1839;SDS011;920;48.944;9.148;2024-02-14T05:07:49;3.57;;;2.30;;
1839;SDS011;920;48.944;9.148;2024-02-14T05:10:16;3.43;;;2.30;;
1839;SDS011;920;48.944;9.148;2024-02-14T05:12:43;4.77;;;2.50;;
1839;SDS011;920;48.944;9.148;2024-02-14T05:15:11;4.00;;;2.23;;
1839;SDS011;920;48.944;9.148;2024-02-14T05:17:41;3.03;;;2.40;;
1839;SDS011;920;48.944;9.148;2024-02-14T05:20:08;4.17;;;2.27;;
1839;SDS011;920;48.944;9.148;2024-02-14T05:22:36;4.07;;;2.33;;
1839;SDS011;920;48.944;9.148;2024-02-14T05:25:04;3.43;;;2.00;;
1839;SDS011;920;48.944;9.148;2024-02-14T05:27:33;2.70;;;1.77;;
1839;SDS011;920;48.944;9.148;2024-02-14T05:29:59;3.93;;;1.90;;
1839;SDS011;920;48.944;9.148;2024-02-14T05:32:28;2.87;;;2.00;;
1839;SDS011;920;48.944;9.148;2024-02-14T05:34:54;3.50;;;2.07;;
1839;SDS011;920;48.944;9.148;2024-02-14T05:37:21;5.17;;;2.13;;
1839;SDS011;920;48.944;9.148;2024-02-14T05:39:48;3.33;;;2.00;;
1839;SDS011;920;48.944;9.148;2024-02-14T05:42:15;3.50;;;1.97;;
1839;SDS011;920;48.944;9.148;2024-02-14T05:44:42;4.23;;;2.30;;
1839;SDS011;920;48.944;9.148;2024-02-14T05:47:09;5.13;;;2.40;;
1839;SDS011;920;48.944;9.148;2024-02-14T05:49:39;3.03;;;2.07;;
1839;SDS011;920;48.944;9.148;2024-02-14T05:52:06;2.77;;;1.87;;
1839;SDS011;920;48.944;9.148;2024-02-14T05:54:32;4.93;;;2.23;;
1839;SDS011;920;48.944;9.148;2024-02-14T05:57:00;5.70;;;2.37;;
1839;SDS011;920;48.944;9.148;2024-02-14T05:59:27;5.40;;;2.57;;
1839;SDS011;920;48.944;9.148;2024-02-14T06:01:54;3.33;;;2.43;;
1839;SDS011;920;48.944;9.148;2024-02-14T06:04:21;5.20;;;4.30;;
1839;SDS011;920;48.944;9.148;2024-02-14T06:06:49;5.73;;;3.03;;
1839;SDS011;920;48.944;9.148;2024-02-14T06:09:16;3.87;;;2.57;;
1839;SDS011;920;48.944;9.148;2024-02-14T06:11:43;5.83;;;2.87;;
1839;SDS011;920;48.944;9.148;2024-02-14T06:14:10;3.33;;;2.33;;
1839;SDS011;920;48.944;9.148;2024-02-14T06:16:37;4.83;;;2.70;;
1839;SDS011;920;48.944;9.148;2024-02-14T06:19:04;6.13;;;2.10;;
1839;SDS011;920;48.944;9.148;2024-02-14T06:21:31;4.20;;;2.10;;
1839;SDS011;920;48.944;9.148;2024-02-14T06:23:59;7.53;;;3.10;;
1839;SDS011;920;48.944;9.148;2024-02-14T06:26:28;5.20;;;3.00;;
1839;SDS011;920;48.944;9.148;2024-02-14T06:28:55;5.30;;;3.40;;
1839;SDS011;920;48.944;9.148;2024-02-14T06:31:22;4.30;;;2.80;;
1839;SDS011;920;48.944;9.148;2024-02-14T06:33:49;4.50;;;3.20;;
1839;SDS011;920;48.944;9.148;2024-02-14T06:36:16;5.60;;;3.50;;
1839;SDS011;920;48.944;9.148;2024-02-14T06:38:42;5.93;;;3.30;;
1839;SDS011;920;48.944;9.148;2024-02-14T06:41:13;7.10;;;3.50;;
1839;SDS011;920;48.944;9.148;2024-02-14T06:43:39;5.57;;;3.70;;
1839;SDS011;920;48.944;9.148;2024-02-14T06:46:06;4.57;;;3.37;;
1839;SDS011;920;48.944;9.148;2024-02-14T06:48:33;9.53;;;3.67;;
1839;SDS011;920;48.944;9.148;2024-02-14T06:51:00;5.40;;;3.50;;
1839;SDS011;920;48.944;9.148;2024-02-14T06:53:27;8.07;;;3.60;;
1839;SDS011;920;48.944;9.148;2024-02-14T06:55:53;4.70;;;3.27;;
1839;SDS011;920;48.944;9.148;2024-02-14T06:58:21;5.70;;;3.77;;
1839;SDS011;920;48.944;9.148;2024-02-14T07:00:48;4.90;;;3.27;;
1839;SDS011;920;48.944;9.148;2024-02-14T07:03:15;4.53;;;3.77;;
1839;SDS011;920;48.944;9.148;2024-02-14T07:05:42;5.60;;;3.20;;
1839;SDS011;920;48.944;9.148;2024-02-14T07:08:09;5.90;;;4.30;;
1839;SDS011;920;48.944;9.148;2024-02-14T07:10:36;6.80;;;4.07;;
1839;SDS011;920;48.944;9.148;2024-02-14T07:13:02;6.07;;;3.97;;
1839;SDS011;920;48.944;9.148;2024-02-14T07:15:31;6.40;;;3.83;;
1839;SDS011;920;48.944;9.148;2024-02-14T07:17:57;5.53;;;4.17;;
1839;SDS011;920;48.944;9.148;2024-02-14T07:20:24;5.23;;;3.50;;
1839;SDS011;920;48.944;9.148;2024-02-14T07:22:52;5.50;;;4.00;;
1839;SDS011;920;48.944;9.148;2024-02-14T07:25:20;5.73;;;3.83;;
1839;SDS011;920;48.944;9.148;2024-02-14T07:27:47;7.80;;;4.07;;
1839;SDS011;920;48.944;9.148;2024-02-14T07:30:14;5.20;;;3.83;;
1839;SDS011;920;48.944;9.148;2024-02-14T07:32:43;6.83;;;4.00;;
1839;SDS011;920;48.944;9.148;2024-02-14T07:35:10;7.23;;;3.97;;
1839;SDS011;920;48.944;9.148;2024-02-14T07:37:38;5.50;;;4.00;;
1839;SDS011;920;48.944;9.148;2024-02-14T07:40:05;5.40;;;4.33;;
1839;SDS011;920;48.944;9.148;2024-02-14T07:42:33;5.70;;;3.93;;
1839;SDS011;920;48.944;9.148;2024-02-14T07:45:00;7.13;;;4.20;;
1839;SDS011;920;48.944;9.148;2024-02-14T07:47:28;6.63;;;4.13;;
1839;SDS011;920;48.944;9.148;2024-02-14T07:49:56;8.03;;;3.70;;
1839;SDS011;920;48.944;9.148;2024-02-14T07:52:23;4.83;;;4.00;;
1839;SDS011;920;48.944;9.148;2024-02-14T07:54:51;4.80;;;3.77;;
1839;SDS011;920;48.944;9.148;2024-02-14T07:57:18;5.67;;;3.50;;
1839;SDS011;920;48.944;9.148;2024-02-14T07:59:45;5.50;;;3.50;;
1839;SDS011;920;48.944;9.148;2024-02-14T08:02:11;7.90;;;4.20;;
1839;SDS011;920;48.944;9.148;2024-02-14T08:04:38;5.03;;;3.60;;
1839;SDS011;920;48.944;9.148;2024-02-14T08:07:06;4.60;;;3.53;;
1839;SDS011;920;48.944;9.148;2024-02-14T08:09:33;8.33;;;3.47;;
1839;SDS011;920;48.944;9.148;2024-02-14T08:12:00;8.00;;;3.40;;
1839;SDS011;920;48.944;9.148;2024-02-14T08:14:26;6.10;;;3.03;;
1839;SDS011;920;48.944;9.148;2024-02-14T08:16:53;5.10;;;2.73;;
1839;SDS011;920;48.944;9.148;2024-02-14T08:19:20;4.07;;;2.80;;
1839;SDS011;920;48.944;9.148;2024-02-14T08:21:47;3.77;;;2.43;;
1839;SDS011;920;48.944;9.148;2024-02-14T08:24:15;3.07;;;1.90;;
1839;SDS011;920;48.944;9.148;2024-02-14T08:26:42;2.80;;;1.90;;
1839;SDS011;920;48.944;9.148;2024-02-14T08:29:09;3.03;;;1.80;;
1839;SDS011;920;48.944;9.148;2024-02-14T08:31:36;2.93;;;1.80;;
1839;SDS011;920;48.944;9.148;2024-02-14T08:34:03;2.90;;;1.73;;
1839;SDS011;920;48.944;9.148;2024-02-14T08:36:30;2.70;;;1.70;;
1839;SDS011;920;48.944;9.148;2024-02-14T08:38:56;2.67;;;1.70;;
1839;SDS011;920;48.944;9.148;2024-02-14T08:41:25;6.60;;;1.90;;
1839;SDS011;920;48.944;9.148;2024-02-14T08:43:51;2.80;;;1.73;;
1839;SDS011;920;48.944;9.148;2024-02-14T08:46:18;2.80;;;1.70;;
1839;SDS011;920;48.944;9.148;2024-02-14T08:48:45;4.97;;;1.53;;
1839;SDS011;920;48.944;9.148;2024-02-14T08:51:12;5.53;;;2.03;;
1839;SDS011;920;48.944;9.148;2024-02-14T08:53:39;3.50;;;1.70;;
1839;SDS011;920;48.944;9.148;2024-02-14T08:56:07;2.80;;;1.90;;
1839;SDS011;920;48.944;9.148;2024-02-14T08:58:35;3.50;;;2.13;;
1839;SDS011;920;48.944;9.148;2024-02-14T09:01:02;3.10;;;1.93;;
1839;SDS011;920;48.944;9.148;2024-02-14T09:03:29;3.50;;;1.83;;
1839;SDS011;920;48.944;9.148;2024-02-14T09:05:56;2.87;;;1.93;;
1839;SDS011;920;48.944;9.148;2024-02-14T09:08:23;2.97;;;1.50;;
1839;SDS011;920;48.944;9.148;2024-02-14T09:10:50;4.97;;;2.10;;
1839;SDS011;920;48.944;9.148;2024-02-14T09:13:17;4.33;;;2.53;;
1839;SDS011;920;48.944;9.148;2024-02-14T09:15:45;3.87;;;1.80;;
1839;SDS011;920;48.944;9.148;2024-02-14T09:18:13;3.43;;;1.70;;
1839;SDS011;920;48.944;9.148;2024-02-14T09:20:43;3.67;;;1.80;;
1839;SDS011;920;48.944;9.148;2024-02-14T09:23:11;5.10;;;2.10;;
1839;SDS011;920;48.944;9.148;2024-02-14T09:25:38;3.77;;;1.90;;
1839;SDS011;920;48.944;9.148;2024-02-14T09:28:05;4.40;;;1.80;;
1839;SDS011;920;48.944;9.148;2024-02-14T09:30:32;3.77;;;1.80;;
1839;SDS011;920;48.944;9.148;2024-02-14T09:33:00;3.73;;;2.00;;
1839;SDS011;920;48.944;9.148;2024-02-14T09:35:27;3.27;;;2.03;;
1839;SDS011;920;48.944;9.148;2024-02-14T09:37:54;4.60;;;1.80;;
1839;SDS011;920;48.944;9.148;2024-02-14T09:40:20;5.77;;;1.80;;
1839;SDS011;920;48.944;9.148;2024-02-14T09:42:49;3.83;;;2.10;;
1839;SDS011;920;48.944;9.148;2024-02-14T09:45:20;3.10;;;1.73;;
1839;SDS011;920;48.944;9.148;2024-02-14T09:47:46;3.13;;;1.80;;
1839;SDS011;920;48.944;9.148;2024-02-14T09:50:15;3.20;;;1.63;;
1839;SDS011;920;48.944;9.148;2024-02-14T09:52:42;3.53;;;1.57;;
1839;SDS011;920;48.944;9.148;2024-02-14T09:55:09;3.23;;;1.80;;
1839;SDS011;920;48.944;9.148;2024-02-14T09:57:37;3.80;;;1.73;;
1839;SDS011;920;48.944;9.148;2024-02-14T10:00:08;3.43;;;1.77;;
1839;SDS011;920;48.944;9.148;2024-02-14T10:02:36;3.63;;;1.57;;
1839;SDS011;920;48.944;9.148;2024-02-14T10:05:03;2.67;;;1.60;;
1839;SDS011;920;48.944;9.148;2024-02-14T10:07:39;2.53;;;1.50;;
1839;SDS011;920;48.944;9.148;2024-02-14T10:10:07;2.93;;;1.47;;
1839;SDS011;920;48.944;9.148;2024-02-14T10:12:33;3.63;;;1.70;;
1839;SDS011;920;48.944;9.148;2024-02-14T10:15:00;3.30;;;1.80;;
1839;SDS011;920;48.944;9.148;2024-02-14T10:17:27;3.17;;;1.80;;
1839;SDS011;920;48.944;9.148;2024-02-14T10:19:54;3.03;;;1.80;;
1839;SDS011;920;48.944;9.148;2024-02-14T10:22:22;2.80;;;1.40;;
1839;SDS011;920;48.944;9.148;2024-02-14T10:24:51;3.00;;;1.40;;
1839;SDS011;920;48.944;9.148;2024-02-14T10:27:20;2.40;;;1.40;;
1839;SDS011;920;48.944;9.148;2024-02-14T10:29:47;3.67;;;1.53;;
1839;SDS011;920;48.944;9.148;2024-02-14T10:32:14;2.03;;;1.10;;
1839;SDS011;920;48.944;9.148;2024-02-14T10:34:41;2.93;;;1.47;;
1839;SDS011;920;48.944;9.148;2024-02-14T10:37:13;2.43;;;1.50;;
1839;SDS011;920;48.944;9.148;2024-02-14T10:39:41;2.67;;;1.40;;
1839;SDS011;920;48.944;9.148;2024-02-14T10:42:09;3.30;;;1.50;;
1839;SDS011;920;48.944;9.148;2024-02-14T10:44:36;2.87;;;1.53;;
1839;SDS011;920;48.944;9.148;2024-02-14T10:47:03;3.27;;;1.33;;
1839;SDS011;920;48.944;9.148;2024-02-14T10:49:32;2.63;;;1.50;;
1839;SDS011;920;48.944;9.148;2024-02-14T10:51:59;3.00;;;1.30;;
1839;SDS011;920;48.944;9.148;2024-02-14T10:54:30;2.53;;;1.40;;
1839;SDS011;920;48.944;9.148;2024-02-14T10:56:58;2.97;;;1.70;;
1839;SDS011;920;48.944;9.148;2024-02-14T10:59:27;3.90;;;1.30;;
1839;SDS011;920;48.944;9.148;2024-02-14T11:01:55;3.63;;;1.27;;
1839;SDS011;920;48.944;9.148;2024-02-14T11:04:22;2.80;;;1.40;;
1839;SDS011;920;48.944;9.148;2024-02-14T11:06:52;2.20;;;1.03;;
1839;SDS011;920;48.944;9.148;2024-02-14T11:09:20;3.20;;;1.50;;
1839;SDS011;920;48.944;9.148;2024-02-14T11:11:46;2.90;;;1.40;;
1839;SDS011;920;48.944;9.148;2024-02-14T11:14:14;3.97;;;1.43;;
1839;SDS011;920;48.944;9.148;2024-02-14T11:16:44;2.10;;;1.40;;
1839;SDS011;920;48.944;9.148;2024-02-14T11:19:11;3.27;;;1.40;;
1839;SDS011;920;48.944;9.148;2024-02-14T11:21:39;2.60;;;1.30;;
1839;SDS011;920;48.944;9.148;2024-02-14T11:24:09;3.00;;;1.40;;
1839;SDS011;920;48.944;9.148;2024-02-14T11:26:39;2.80;;;1.23;;
1839;SDS011;920;48.944;9.148;2024-02-14T11:29:06;6.60;;;4.20;;
1839;SDS011;920;48.944;9.148;2024-02-14T11:31:35;4.00;;;2.70;;
1839;SDS011;920;48.944;9.148;2024-02-14T11:34:05;3.03;;;1.93;;
1839;SDS011;920;48.944;9.148;2024-02-14T11:36:33;3.77;;;1.60;;
1839;SDS011;920;48.944;9.148;2024-02-14T11:39:04;2.90;;;1.40;;
1839;SDS011;920;48.944;9.148;2024-02-14T11:41:32;3.90;;;1.43;;
1839;SDS011;920;48.944;9.148;2024-02-14T11:44:00;2.50;;;1.40;;
1839;SDS011;920;48.944;9.148;2024-02-14T11:46:29;3.30;;;1.80;;
1839;SDS011;920;48.944;9.148;2024-02-14T11:48:56;4.90;;;2.50;;
1839;SDS011;920;48.944;9.148;2024-02-14T11:51:24;4.83;;;2.50;;
1839;SDS011;920;48.944;9.148;2024-02-14T11:53:52;4.20;;;1.93;;
1839;SDS011;920;48.944;9.148;2024-02-14T11:56:20;3.30;;;2.10;;
1839;SDS011;920;48.944;9.148;2024-02-14T11:58:47;3.20;;;2.03;;
1839;SDS011;920;48.944;9.148;2024-02-14T12:01:16;3.07;;;1.70;;
1839;SDS011;920;48.944;9.148;2024-02-14T12:03:43;3.00;;;1.63;;
1839;SDS011;920;48.944;9.148;2024-02-14T12:06:10;2.70;;;1.70;;
1839;SDS011;920;48.944;9.148;2024-02-14T12:08:38;3.00;;;1.57;;
1839;SDS011;920;48.944;9.148;2024-02-14T12:11:05;3.70;;;1.90;;
1839;SDS011;920;48.944;9.148;2024-02-14T12:13:32;3.00;;;1.80;;
1839;SDS011;920;48.944;9.148;2024-02-14T12:16:03;3.20;;;1.60;;
1839;SDS011;920;48.944;9.148;2024-02-14T12:18:31;3.63;;;1.77;;
1839;SDS011;920;48.944;9.148;2024-02-14T12:21:03;2.67;;;1.53;;
1839;SDS011;920;48.944;9.148;2024-02-14T12:23:32;3.67;;;1.60;;
1839;SDS011;920;48.944;9.148;2024-02-14T12:26:02;2.80;;;1.40;;
1839;SDS011;920;48.944;9.148;2024-02-14T12:28:30;2.50;;;1.63;;
1839;SDS011;920;48.944;9.148;2024-02-14T12:30:57;3.57;;;1.50;;
1839;SDS011;920;48.944;9.148;2024-02-14T12:33:25;3.03;;;1.60;;
1839;SDS011;920;48.944;9.148;2024-02-14T12:35:53;2.47;;;1.70;;
1839;SDS011;920;48.944;9.148;2024-02-14T12:38:20;3.90;;;1.60;;
1839;SDS011;920;48.944;9.148;2024-02-14T12:40:48;2.00;;;1.20;;
1839;SDS011;920;48.944;9.148;2024-02-14T12:43:16;2.20;;;1.30;;
1839;SDS011;920;48.944;9.148;2024-02-14T12:45:43;2.83;;;1.30;;
1839;SDS011;920;48.944;9.148;2024-02-14T12:48:10;4.30;;;1.50;;
1839;SDS011;920;48.944;9.148;2024-02-14T12:50:39;1.93;;;1.13;;
1839;SDS011;920;48.944;9.148;2024-02-14T12:53:12;2.17;;;1.20;;
1839;SDS011;920;48.944;9.148;2024-02-14T12:55:39;1.90;;;1.10;;
1839;SDS011;920;48.944;9.148;2024-02-14T12:58:06;3.40;;;1.20;;
1839;SDS011;920;48.944;9.148;2024-02-14T13:00:36;1.77;;;0.70;;
1839;SDS011;920;48.944;9.148;2024-02-14T13:03:03;2.40;;;0.77;;
1839;SDS011;920;48.944;9.148;2024-02-14T13:05:30;2.63;;;1.00;;
1839;SDS011;920;48.944;9.148;2024-02-14T13:07:57;2.40;;;0.77;;
1839;SDS011;920;48.944;9.148;2024-02-14T13:10:24;2.30;;;0.60;;
1839;SDS011;920;48.944;9.148;2024-02-14T13:12:51;1.77;;;0.70;;
1839;SDS011;920;48.944;9.148;2024-02-14T13:15:18;1.70;;;0.70;;
1839;SDS011;920;48.944;9.148;2024-02-14T13:17:47;1.97;;;0.80;;
1839;SDS011;920;48.944;9.148;2024-02-14T13:20:13;2.10;;;0.53;;
1839;SDS011;920;48.944;9.148;2024-02-14T13:22:41;2.33;;;0.57;;
1839;SDS011;920;48.944;9.148;2024-02-14T13:25:08;2.77;;;0.80;;
1839;SDS011;920;48.944;9.148;2024-02-14T13:27:35;1.93;;;0.70;;
1839;SDS011;920;48.944;9.148;2024-02-14T13:30:02;2.43;;;0.80;;
1839;SDS011;920;48.944;9.148;2024-02-14T13:32:29;1.43;;;0.60;;
1839;SDS011;920;48.944;9.148;2024-02-14T13:34:57;1.50;;;0.60;;
1839;SDS011;920;48.944;9.148;2024-02-14T13:37:24;2.73;;;0.80;;
1839;SDS011;920;48.944;9.148;2024-02-14T13:39:51;2.23;;;0.80;;
1839;SDS011;920;48.944;9.148;2024-02-14T13:42:18;1.60;;;0.80;;
1839;SDS011;920;48.944;9.148;2024-02-14T13:44:44;2.20;;;0.70;;
1839;SDS011;920;48.944;9.148;2024-02-14T13:47:11;1.50;;;0.60;;
1839;SDS011;920;48.944;9.148;2024-02-14T13:49:38;1.57;;;0.70;;
1839;SDS011;920;48.944;9.148;2024-02-14T13:52:07;1.70;;;0.77;;
1839;SDS011;920;48.944;9.148;2024-02-14T13:54:33;2.87;;;0.80;;
1839;SDS011;920;48.944;9.148;2024-02-14T13:57:00;2.90;;;0.77;;
1839;SDS011;920;48.944;9.148;2024-02-14T13:59:27;1.73;;;0.80;;
1839;SDS011;920;48.944;9.148;2024-02-14T14:01:54;1.53;;;0.70;;
1839;SDS011;920;48.944;9.148;2024-02-14T14:04:21;1.80;;;0.83;;
1839;SDS011;920;48.944;9.148;2024-02-14T14:06:48;1.60;;;0.70;;
1839;SDS011;920;48.944;9.148;2024-02-14T14:09:16;1.83;;;0.70;;
1839;SDS011;920;48.944;9.148;2024-02-14T14:11:43;1.70;;;0.60;;
1839;SDS011;920;48.944;9.148;2024-02-14T14:14:11;1.90;;;0.70;;
1839;SDS011;920;48.944;9.148;2024-02-14T14:16:43;2.33;;;0.70;;
1839;SDS011;920;48.944;9.148;2024-02-14T14:19:09;1.90;;;0.80;;
1839;SDS011;920;48.944;9.148;2024-02-14T14:21:36;2.50;;;1.00;;
1839;SDS011;920;48.944;9.148;2024-02-14T14:24:04;1.87;;;0.90;;
1839;SDS011;920;48.944;9.148;2024-02-14T14:26:32;2.87;;;1.00;;
1839;SDS011;920;48.944;9.148;2024-02-14T14:29:00;7.27;;;5.10;;
1839;SDS011;920;48.944;9.148;2024-02-14T14:31:27;3.00;;;1.20;;
1839;SDS011;920;48.944;9.148;2024-02-14T14:33:53;2.83;;;1.07;;
1839;SDS011;920;48.944;9.148;2024-02-14T14:36:22;1.80;;;0.80;;
1839;SDS011;920;48.944;9.148;2024-02-14T14:38:49;1.90;;;0.80;;
1839;SDS011;920;48.944;9.148;2024-02-14T14:41:16;2.00;;;0.60;;
1839;SDS011;920;48.944;9.148;2024-02-14T14:43:44;2.20;;;0.70;;
1839;SDS011;920;48.944;9.148;2024-02-14T14:46:14;1.40;;;0.60;;
1839;SDS011;920;48.944;9.148;2024-02-14T14:48:41;1.90;;;0.83;;
1839;SDS011;920;48.944;9.148;2024-02-14T14:51:07;2.23;;;1.30;;
1839;SDS011;920;48.944;9.148;2024-02-14T14:53:34;2.80;;;0.97;;
1839;SDS011;920;48.944;9.148;2024-02-14T14:56:01;1.77;;;0.70;;
1839;SDS011;920;48.944;9.148;2024-02-14T14:58:28;2.70;;;0.80;;
1839;SDS011;920;48.944;9.148;2024-02-14T15:01:00;3.10;;;0.90;;
1839;SDS011;920;48.944;9.148;2024-02-14T15:03:29;2.27;;;0.90;;
1839;SDS011;920;48.944;9.148;2024-02-14T15:05:56;1.93;;;0.70;;
1839;SDS011;920;48.944;9.148;2024-02-14T15:08:23;1.70;;;0.80;;
1839;SDS011;920;48.944;9.148;2024-02-14T15:10:50;1.50;;;0.70;;
1839;SDS011;920;48.944;9.148;2024-02-14T15:13:18;2.53;;;0.90;;
1839;SDS011;920;48.944;9.148;2024-02-14T15:15:45;1.60;;;0.67;;
1839;SDS011;920;48.944;9.148;2024-02-14T15:18:13;2.07;;;1.00;;
1839;SDS011;920;48.944;9.148;2024-02-14T15:20:40;2.17;;;0.80;;
1839;SDS011;920;48.944;9.148;2024-02-14T15:23:07;2.23;;;0.83;;
1839;SDS011;920;48.944;9.148;2024-02-14T15:25:34;2.50;;;0.90;;
1839;SDS011;920;48.944;9.148;2024-02-14T15:28:06;3.33;;;1.30;;
1839;SDS011;920;48.944;9.148;2024-02-14T15:30:37;4.70;;;1.40;;